createdAt,value
2024-02-13T00:00:33.287Z,97791.14
2024-02-13T00:03:20.963Z,97797.95
2024-02-13T00:05:49.058Z,97797.89
2024-02-13T00:08:17.038Z,97804.00
2024-02-13T00:10:46.811Z,97809.55
2024-02-13T00:13:14.451Z,97807.35
2024-02-13T00:15:42.127Z,97810.95
2024-02-13T00:18:10.042Z,97814.66
2024-02-13T00:20:37.905Z,97813.06
2024-02-13T00:23:05.868Z,97817.13
2024-02-13T00:25:33.614Z,97825.16
2024-02-13T00:28:01.249Z,97829.12
2024-02-13T00:30:31.213Z,97833.26
2024-02-13T00:33:00.396Z,97838.07
2024-02-13T00:35:28.263Z,97836.64
2024-02-13T00:37:56.034Z,97838.48
2024-02-13T00:40:23.861Z,97840.71
2024-02-13T00:42:51.647Z,97843.71
2024-02-13T00:45:19.959Z,97845.58
2024-02-13T00:47:47.722Z,97847.80
2024-02-13T00:50:15.498Z,97845.21
2024-02-13T00:52:43.235Z,97848.62
2024-02-13T00:55:11.259Z,97849.02
2024-02-13T00:57:39.139Z,97853.41
2024-02-13T01:00:07.781Z,97851.91
2024-02-13T01:02:35.761Z,97852.08
2024-02-13T01:05:03.915Z,97852.88
2024-02-13T01:07:32.149Z,97852.46
2024-02-13T01:09:59.912Z,97852.36
2024-02-13T01:12:27.613Z,97854.12
2024-02-13T01:14:55.437Z,97853.54
2024-02-13T01:17:23.225Z,97853.66
2024-02-13T01:19:51.140Z,97857.31
2024-02-13T01:22:18.771Z,97859.11
2024-02-13T01:24:46.506Z,97862.94
2024-02-13T01:27:14.126Z,97869.63
2024-02-13T01:29:41.892Z,97868.71
2024-02-13T01:32:09.620Z,97869.77
2024-02-13T01:34:37.510Z,97871.39
2024-02-13T01:37:05.271Z,97874.81
2024-02-13T01:39:33.038Z,97881.52
2024-02-13T01:42:00.699Z,97883.08
2024-02-13T01:44:28.851Z,97885.83
2024-02-13T01:46:57.497Z,97888.21
2024-02-13T01:49:25.863Z,97888.05
2024-02-13T01:51:54.282Z,97890.41
2024-02-13T01:54:22.186Z,97892.77
2024-02-13T01:56:50.435Z,97897.86
2024-02-13T01:59:18.341Z,97906.88
2024-02-13T02:01:47.421Z,97915.17
2024-02-13T02:04:15.350Z,97915.23
2024-02-13T02:06:43.123Z,97918.48
2024-02-13T02:09:10.836Z,97915.47
2024-02-13T02:11:38.602Z,97917.77
2024-02-13T02:14:06.734Z,97916.25
2024-02-13T02:16:34.409Z,97913.92
2024-02-13T02:19:03.118Z,97913.66
2024-02-13T02:21:30.846Z,97912.67
2024-02-13T02:23:58.639Z,97913.75
2024-02-13T02:26:26.449Z,97915.95
2024-02-13T02:28:54.134Z,97919.42
2024-02-13T02:31:21.909Z,97920.73
2024-02-13T02:33:49.738Z,97924.34
2024-02-13T02:36:17.426Z,97927.63
2024-02-13T02:38:45.083Z,97929.41
2024-02-13T02:41:12.912Z,97932.70
2024-02-13T02:43:40.570Z,97936.84
2024-02-13T02:46:08.323Z,97935.08
2024-02-13T02:48:36.143Z,97939.40
2024-02-13T02:51:04.162Z,97938.30
2024-02-13T02:53:31.960Z,97941.33
2024-02-13T02:55:59.668Z,97945.54
2024-02-13T02:58:27.346Z,97949.70
2024-02-13T03:00:55.040Z,97953.90
2024-02-13T03:03:23.322Z,97954.25
2024-02-13T03:05:51.744Z,97954.63
2024-02-13T03:08:19.592Z,97961.27
2024-02-13T03:10:47.266Z,97963.52
2024-02-13T03:13:15.008Z,97964.23
2024-02-13T03:15:42.799Z,97968.31
2024-02-13T03:18:10.634Z,97967.33
2024-02-13T03:20:38.559Z,97970.39
2024-02-13T03:23:06.422Z,97979.67
2024-02-13T03:25:34.074Z,97982.55
2024-02-13T03:28:01.856Z,97990.12
2024-02-13T03:30:29.544Z,97990.80
2024-02-13T03:32:57.408Z,97991.48
2024-02-13T03:35:25.556Z,97991.27
2024-02-13T03:37:53.278Z,97996.44
2024-02-13T03:40:21.039Z,98000.20
2024-02-13T03:42:48.844Z,97999.70
2024-02-13T03:45:17.132Z,98006.13
2024-02-13T03:47:44.873Z,98010.00
2024-02-13T03:50:12.705Z,98011.88
2024-02-13T03:52:40.412Z,98014.24
2024-02-13T03:55:08.360Z,98019.46
2024-02-13T03:57:36.074Z,98023.34
2024-02-13T04:00:04.724Z,98025.15
2024-02-13T04:02:32.442Z,98028.76
2024-02-13T04:05:00.620Z,98026.99
2024-02-13T04:07:28.337Z,98030.16
2024-02-13T04:09:56.013Z,98033.42
2024-02-13T04:12:23.749Z,98038.13
2024-02-13T04:14:51.712Z,98045.16
2024-02-13T04:17:19.712Z,98051.13
2024-02-13T04:19:47.552Z,98050.83
2024-02-13T04:22:15.462Z,98054.43
2024-02-13T04:24:43.111Z,98053.61
2024-02-13T04:27:10.822Z,98058.71
2024-02-13T04:29:41.952Z,98063.63
2024-02-13T04:32:09.683Z,98064.52
2024-02-13T04:34:37.557Z,98065.06
2024-02-13T04:37:05.320Z,98069.52
2024-02-13T04:39:32.965Z,98070.45
2024-02-13T04:42:00.681Z,98073.20
2024-02-13T04:44:28.359Z,98075.83
2024-02-13T04:46:56.306Z,98077.40
2024-02-13T04:49:24.128Z,98079.34
2024-02-13T04:51:52.061Z,98085.84
2024-02-13T04:54:19.890Z,98085.44
2024-02-13T04:56:47.538Z,98091.25
2024-02-13T04:59:15.346Z,98095.23
2024-02-13T05:01:43.958Z,98097.51
2024-02-13T05:04:12.060Z,98096.59
2024-02-13T05:06:39.776Z,98100.05
2024-02-13T05:09:07.500Z,98100.30
2024-02-13T05:11:35.304Z,98103.73
2024-02-13T05:14:03.046Z,98104.32
2024-02-13T05:16:30.929Z,98112.84
2024-02-13T05:18:58.697Z,98112.55
2024-02-13T05:21:26.425Z,98115.37
2024-02-13T05:23:54.129Z,98119.84
2024-02-13T05:26:21.989Z,98125.70
2024-02-13T05:28:51.706Z,98130.86
2024-02-13T05:31:20.508Z,98136.48
2024-02-13T05:33:48.250Z,98138.10
2024-02-13T05:36:16.397Z,98139.88
2024-02-13T05:38:45.139Z,98147.23
2024-02-13T05:41:13.639Z,98151.73
2024-02-13T05:43:42.246Z,98157.89
2024-02-13T05:46:10.235Z,98162.56
2024-02-13T05:48:37.990Z,98169.71
2024-02-13T05:51:06.002Z,98171.65
2024-02-13T05:53:34.463Z,98177.11
2024-02-13T05:56:02.320Z,98182.08
2024-02-13T05:58:30.802Z,98187.17
2024-02-13T06:00:59.143Z,98186.42
2024-02-13T06:03:27.655Z,98188.20
2024-02-13T06:05:55.560Z,98192.33
2024-02-13T06:08:23.371Z,98196.82
2024-02-13T06:10:51.543Z,98202.31
2024-02-13T06:13:19.469Z,98206.34
2024-02-13T06:15:47.095Z,98208.65
2024-02-13T06:18:14.986Z,98212.46
2024-02-13T06:20:42.854Z,98215.28
2024-02-13T06:23:10.636Z,98217.06
2024-02-13T06:25:38.370Z,98221.08
2024-02-13T06:28:07.001Z,98228.13
2024-02-13T06:30:34.658Z,98234.34
2024-02-13T06:33:02.565Z,98238.89
2024-02-13T06:35:30.319Z,98242.93
2024-02-13T06:37:58.012Z,98244.09
2024-02-13T06:40:25.750Z,98248.64
2024-02-13T06:42:53.555Z,98249.81
2024-02-13T06:45:21.250Z,98253.17
2024-02-13T06:47:48.970Z,98257.23
2024-02-13T06:50:16.832Z,98263.17
2024-02-13T06:52:44.597Z,98267.89
2024-02-13T06:55:12.332Z,98271.29
2024-02-13T06:57:40.091Z,98269.27
2024-02-13T07:00:08.214Z,98278.92
2024-02-13T07:02:36.520Z,98284.80
2024-02-13T07:05:04.480Z,98284.10
2024-02-13T07:07:41.679Z,98288.46
2024-02-13T07:10:15.759Z,98291.48
2024-02-13T07:12:43.944Z,98288.72
2024-02-13T07:15:12.002Z,98291.89
2024-02-13T07:20:10.913Z,98296.77
2024-02-13T07:22:39.729Z,98299.06
2024-02-13T07:25:08.272Z,98304.40
2024-02-13T07:27:41.513Z,98305.98
2024-02-13T07:30:09.672Z,98314.66
2024-02-13T07:32:37.491Z,98316.95
2024-02-13T07:35:05.809Z,98324.45
2024-02-13T07:37:33.476Z,98330.42
2024-02-13T07:40:02.334Z,98337.98
2024-02-13T07:42:30.170Z,98344.20
2024-02-13T07:44:58.994Z,98349.13
2024-02-13T07:47:28.135Z,98350.70
2024-02-13T07:49:56.716Z,98352.93
2024-02-13T07:52:29.829Z,98359.05
2024-02-13T07:54:57.590Z,98359.67
2024-02-13T07:57:25.429Z,98365.73
2024-02-13T07:59:53.722Z,98365.95
2024-02-13T08:02:21.483Z,98367.74
2024-02-13T08:04:49.426Z,98368.30
2024-02-13T08:07:17.208Z,98369.30
2024-02-13T08:09:44.814Z,98369.27
2024-02-13T08:12:12.539Z,98368.09
2024-02-13T08:14:40.236Z,98371.36
2024-02-13T08:17:08.123Z,98369.87
2024-02-13T08:19:37.200Z,98369.92
2024-02-13T08:22:04.959Z,98371.40
2024-02-13T08:24:32.946Z,98371.66
2024-02-13T08:27:00.780Z,98375.63
2024-02-13T08:29:31.354Z,98378.81
2024-02-13T08:31:59.512Z,98380.10
2024-02-13T08:34:27.432Z,98380.33
2024-02-13T08:36:55.167Z,98385.67
2024-02-13T08:39:22.944Z,98383.66
2024-02-13T08:41:51.093Z,98382.02
2024-02-13T08:44:18.901Z,98384.09
2024-02-13T08:46:46.584Z,98389.20
2024-02-13T08:49:14.903Z,98393.45
2024-02-13T08:51:42.911Z,98400.02
2024-02-13T08:54:10.575Z,98403.58
2024-02-13T08:56:39.459Z,98404.92
2024-02-13T08:59:07.598Z,98404.85
2024-02-13T09:01:35.325Z,98405.61
2024-02-13T09:04:03.281Z,98407.80
2024-02-13T09:06:32.270Z,98410.66
2024-02-13T09:09:00.515Z,98407.73
2024-02-13T09:11:28.396Z,98409.84
2024-02-13T09:13:56.202Z,98409.83
2024-02-13T09:16:23.862Z,98405.92
2024-02-13T09:18:51.865Z,98407.09
2024-02-13T09:21:19.728Z,98409.05
2024-02-13T09:23:47.531Z,98407.51
2024-02-13T09:26:15.671Z,98413.34
2024-02-13T09:28:43.338Z,98413.11
2024-02-13T09:31:11.085Z,98415.09
2024-02-13T09:33:40.719Z,98416.77
2024-02-13T09:36:09.179Z,98415.98
2024-02-13T09:38:36.912Z,98418.52
2024-02-13T09:41:05.197Z,98425.92
2024-02-13T09:43:33.003Z,98421.98
2024-02-13T09:46:00.657Z,98418.99
2024-02-13T09:48:29.885Z,98425.34
2024-02-13T09:51:00.871Z,98419.19
2024-02-13T09:53:29.859Z,98417.99
2024-02-13T09:55:58.782Z,98423.94
2024-02-13T09:58:27.662Z,98426.03
2024-02-13T10:00:59.559Z,98432.27
2024-02-13T10:03:29.370Z,98435.73
2024-02-13T10:05:57.540Z,98439.13
2024-02-13T10:08:25.478Z,98439.48
2024-02-13T10:11:03.620Z,98437.45
2024-02-13T10:13:38.370Z,98432.77
2024-02-13T10:16:18.728Z,98439.39
2024-02-13T10:18:53.729Z,98442.00
2024-02-13T10:21:23.577Z,98439.32
2024-02-13T10:23:51.569Z,98436.52
2024-02-13T10:26:19.504Z,98438.44
2024-02-13T10:28:47.558Z,98430.78
2024-02-13T10:31:25.048Z,98431.46
2024-02-13T10:33:53.966Z,98431.48
2024-02-13T10:36:22.663Z,98435.78
2024-02-13T10:38:50.732Z,98439.02
2024-02-13T10:41:20.136Z,98442.06
2024-02-13T10:43:51.700Z,98441.20
2024-02-13T10:46:23.188Z,98441.39
2024-02-13T10:49:13.869Z,98437.69
2024-02-13T10:51:42.184Z,98443.23
2024-02-13T10:54:11.193Z,98447.39
2024-02-13T10:56:39.681Z,98447.39
2024-02-13T10:59:08.379Z,98452.92
2024-02-13T11:01:36.415Z,98451.40
2024-02-13T11:04:04.573Z,98453.67
2024-02-13T11:06:34.326Z,98457.73
2024-02-13T11:09:02.836Z,98452.70
2024-02-13T11:11:31.139Z,98453.28
2024-02-13T11:13:58.819Z,98455.36
2024-02-13T11:16:26.440Z,98450.59
2024-02-13T11:18:54.474Z,98449.23
2024-02-13T11:21:25.938Z,98453.33
2024-02-13T11:23:59.065Z,98456.89
2024-02-13T11:26:34.181Z,98458.39
2024-02-13T11:29:20.351Z,98459.75
2024-02-13T11:31:58.056Z,98462.52
2024-02-13T11:34:42.526Z,98462.60
2024-02-13T11:37:17.858Z,98463.22
2024-02-13T11:39:48.739Z,98468.95
2024-02-13T11:42:19.480Z,98468.61
2024-02-13T11:44:47.521Z,98471.35
2024-02-13T11:47:16.630Z,98470.56
2024-02-13T11:49:44.400Z,98472.36
2024-02-13T11:52:12.064Z,98469.92
2024-02-13T11:54:39.732Z,98474.95
2024-02-13T11:57:07.526Z,98481.98
2024-02-13T11:59:35.254Z,98484.48
2024-02-13T12:02:03.209Z,98486.97
2024-02-13T12:04:31.007Z,98489.16
2024-02-13T12:06:58.652Z,98492.52
2024-02-13T12:09:26.673Z,98490.95
2024-02-13T12:11:54.646Z,98497.08
2024-02-13T12:14:22.649Z,98498.89
2024-02-13T12:16:50.581Z,98496.92
2024-02-13T12:19:18.629Z,98497.24
2024-02-13T12:21:46.325Z,98504.30
2024-02-13T12:24:14.040Z,98504.80
2024-02-13T12:26:41.855Z,98510.91
2024-02-13T12:29:09.554Z,98513.00
2024-02-13T12:31:37.641Z,98517.47
2024-02-13T12:34:06.553Z,98517.89
2024-02-13T12:36:35.374Z,98518.30
2024-02-13T12:39:03.538Z,98523.91
2024-02-13T12:41:31.279Z,98528.17
2024-02-13T12:43:58.929Z,98534.40
2024-02-13T12:46:26.598Z,98533.98
2024-02-13T12:48:54.450Z,98536.52
2024-02-13T12:51:22.283Z,98531.71
2024-02-13T12:53:50.178Z,98533.63
2024-02-13T12:56:18.078Z,98534.02
2024-02-13T12:58:45.743Z,98540.19
2024-02-13T13:01:13.494Z,98539.42
2024-02-13T13:03:41.211Z,98541.59
2024-02-13T13:06:11.415Z,98537.80
2024-02-13T13:08:40.271Z,98539.58
2024-02-13T13:11:07.981Z,98549.25
2024-02-13T13:13:35.694Z,98551.27
2024-02-13T13:16:03.374Z,98565.87
2024-02-13T13:18:31.172Z,98579.70
2024-02-13T13:20:59.042Z,98587.63
2024-02-13T13:23:26.790Z,98588.65
2024-02-13T13:25:54.796Z,98584.16
2024-02-13T13:28:23.180Z,98588.73
2024-02-13T13:30:51.243Z,98596.10
2024-02-13T13:33:19.869Z,98596.93
2024-02-13T13:35:48.545Z,98595.30
2024-02-13T13:38:19.136Z,98599.14
2024-02-13T13:40:47.533Z,98603.63
2024-02-13T13:43:15.244Z,98607.55
2024-02-13T13:45:57.038Z,98607.63
2024-02-13T13:48:26.316Z,98604.46
2024-02-13T13:50:54.888Z,98607.59
2024-02-13T13:53:23.037Z,98609.38
2024-02-13T13:55:51.004Z,98608.38
2024-02-13T13:58:18.806Z,98612.38
2024-02-13T14:00:46.670Z,98610.73
2024-02-13T14:03:14.886Z,98616.70
2024-02-13T14:05:42.792Z,98619.91
2024-02-13T14:08:10.924Z,98616.33
2024-02-13T14:10:38.644Z,98621.83
2024-02-13T14:13:06.971Z,98619.59
2024-02-13T14:15:34.674Z,98622.67
2024-02-13T14:18:03.760Z,98623.43
2024-02-13T14:20:32.033Z,98625.38
2024-02-13T14:22:59.682Z,98646.07
2024-02-13T14:25:27.517Z,98644.91
2024-02-13T14:27:55.430Z,98649.65
2024-02-13T14:30:23.339Z,98655.14
2024-02-13T14:32:54.353Z,98655.54
2024-02-13T14:35:22.881Z,98647.77
2024-02-13T14:37:51.658Z,98648.27
2024-02-13T14:40:19.780Z,98652.05
2024-02-13T14:42:48.230Z,98651.73
2024-02-13T14:45:16.771Z,98653.61
2024-02-13T14:47:44.562Z,98657.10
2024-02-13T14:50:12.486Z,98665.11
2024-02-13T14:52:41.291Z,98664.33
2024-02-13T14:55:10.770Z,98668.60
2024-02-13T14:57:46.870Z,98668.27
2024-02-13T15:00:20.438Z,98668.02
2024-02-13T15:02:48.485Z,98672.70
2024-02-13T15:05:16.315Z,98678.80
2024-02-13T15:07:43.973Z,98687.30
2024-02-13T15:10:12.174Z,98688.52
2024-02-13T15:12:40.209Z,98692.96
2024-02-13T15:15:08.612Z,98697.79
2024-02-13T15:17:36.361Z,98699.39
2024-02-13T15:20:04.518Z,98699.59
2024-02-13T15:22:32.226Z,98705.71
2024-02-13T15:25:02.876Z,98704.23
2024-02-13T15:27:31.456Z,98709.50
2024-02-13T15:29:59.584Z,98708.35
2024-02-13T15:32:27.339Z,98708.23
2024-02-13T15:34:55.232Z,98715.38
2024-02-13T15:37:23.077Z,98717.10
2024-02-13T15:39:50.854Z,98719.67
2024-02-13T15:42:18.562Z,98727.34
2024-02-13T15:44:46.306Z,98732.96
2024-02-13T15:47:14.147Z,98739.64
2024-02-13T15:49:41.900Z,98740.09
2024-02-13T15:52:09.674Z,98745.98
2024-02-13T15:54:37.328Z,98751.52
2024-02-13T15:57:05.489Z,98756.01
2024-02-13T15:59:33.447Z,98761.34
2024-02-13T16:02:01.346Z,98762.79
2024-02-13T16:04:29.097Z,98765.90
2024-02-13T16:06:58.755Z,98770.16
2024-02-13T16:09:26.864Z,98774.94
2024-02-13T16:11:54.747Z,98777.49
2024-02-13T16:14:22.560Z,98782.91
2024-02-13T16:16:50.688Z,98785.81
2024-02-13T16:19:18.623Z,98785.51
2024-02-13T16:21:46.333Z,98789.05
2024-02-13T16:24:14.023Z,98790.75
2024-02-13T16:26:41.806Z,98792.97
2024-02-13T16:29:09.478Z,98795.67
2024-02-13T16:31:37.144Z,98797.70
2024-02-13T16:34:04.975Z,98799.60
2024-02-13T16:36:32.731Z,98800.98
2024-02-13T16:39:00.516Z,98803.05
2024-02-13T16:41:28.506Z,98804.80
2024-02-13T16:43:56.170Z,98807.90
2024-02-13T16:46:23.834Z,98811.35
2024-02-13T16:48:54.203Z,98808.05
2024-02-13T16:51:22.810Z,98811.84
2024-02-13T16:53:50.662Z,98813.08
2024-02-13T16:56:18.801Z,98813.80
2024-02-13T16:58:46.578Z,98817.34
2024-02-13T17:01:14.495Z,98819.38
2024-02-13T17:03:42.266Z,98820.37
2024-02-13T17:06:10.198Z,98823.56
2024-02-13T17:08:38.020Z,98829.14
2024-02-13T17:11:05.858Z,98833.38
2024-02-13T17:13:33.545Z,98837.29
2024-02-13T17:16:01.168Z,98837.14
2024-02-13T17:18:29.011Z,98842.73
2024-02-13T17:20:56.837Z,98842.41
2024-02-13T17:23:24.606Z,98841.23
2024-02-13T17:25:52.850Z,98843.44
2024-02-13T17:28:20.464Z,98844.77
2024-02-13T17:30:48.127Z,98847.98
2024-02-13T17:33:15.895Z,98845.43
2024-02-13T17:35:43.786Z,98843.55
2024-02-13T17:38:11.642Z,98848.45
2024-02-13T17:40:39.446Z,98848.27
2024-02-13T17:43:07.098Z,98845.70
2024-02-13T17:45:34.830Z,98848.54
2024-02-13T17:48:02.626Z,98843.64
2024-02-13T17:50:30.469Z,98840.73
2024-02-13T17:52:58.082Z,98841.73
2024-02-13T17:55:32.207Z,98846.78
2024-02-13T17:57:59.842Z,98849.29
2024-02-13T18:00:27.547Z,98853.33
2024-02-13T18:02:55.241Z,98856.36
2024-02-13T18:05:23.212Z,98854.98
2024-02-13T18:07:51.018Z,98850.88
2024-02-13T18:10:18.714Z,98853.07
2024-02-13T18:12:46.467Z,98856.11
2024-02-13T18:15:14.329Z,98858.79
2024-02-13T18:17:43.030Z,98861.15
2024-02-13T18:20:11.064Z,98861.79
2024-02-13T18:22:38.796Z,98861.11
2024-02-13T18:25:06.615Z,98866.87
2024-02-13T18:27:34.221Z,98867.86
2024-02-13T18:30:02.096Z,98871.77
2024-02-13T18:32:29.956Z,98871.77
2024-02-13T18:34:57.651Z,98877.52
2024-02-13T18:37:25.335Z,98879.71
2024-02-13T18:39:53.459Z,98877.52
2024-02-13T18:42:21.201Z,98882.27
2024-02-13T18:44:48.968Z,98881.41
2024-02-13T18:47:16.806Z,98884.80
2024-02-13T18:49:44.545Z,98886.66
2024-02-13T18:52:12.303Z,98884.47
2024-02-13T18:54:39.982Z,98883.61
2024-02-13T18:57:07.876Z,98888.85
2024-02-13T18:59:35.846Z,98893.77
2024-02-13T19:02:03.719Z,98897.14
2024-02-13T19:04:31.421Z,98899.69
2024-02-13T19:06:59.207Z,98903.23
2024-02-13T19:09:27.014Z,98905.10
2024-02-13T19:11:54.922Z,98911.34
2024-02-13T19:14:24.239Z,98907.63
2024-02-13T19:16:52.117Z,98910.85
2024-02-13T19:19:19.863Z,98912.22
2024-02-13T19:21:47.913Z,98913.77
2024-02-13T19:24:15.665Z,98915.13
2024-02-13T19:26:43.382Z,98912.42
2024-02-13T19:29:11.083Z,98913.30
2024-02-13T19:31:38.732Z,98915.65
2024-02-13T19:34:06.623Z,98914.32
2024-02-13T19:36:34.547Z,98916.52
2024-02-13T19:39:02.350Z,98922.80
2024-02-13T19:41:30.216Z,98921.46
2024-02-13T19:43:58.943Z,98920.61
2024-02-13T19:46:26.896Z,98923.84
2024-02-13T19:48:54.990Z,98924.21
2024-02-13T19:51:22.836Z,98921.69
2024-02-13T19:53:50.753Z,98925.25
2024-02-13T19:56:18.538Z,98928.14
2024-02-13T19:58:46.230Z,98925.64
2024-02-13T20:01:13.985Z,98928.86
2024-02-13T20:03:41.718Z,98933.25
2024-02-13T20:06:09.580Z,98933.59
2024-02-13T20:08:37.410Z,98934.63
2024-02-13T20:11:05.536Z,98933.98
2024-02-13T20:13:33.310Z,98936.23
2024-02-13T20:16:01.058Z,98934.92
2024-02-13T20:18:28.896Z,98939.56
2024-02-13T20:20:56.760Z,98940.95
2024-02-13T20:23:24.749Z,98942.54
2024-02-13T20:25:52.691Z,98944.41
2024-02-13T20:28:20.352Z,98944.95
2024-02-13T20:30:48.019Z,98947.52
2024-02-13T20:33:18.222Z,98947.40
2024-02-13T20:36:05.247Z,98942.91
2024-02-13T20:38:36.831Z,98946.05
2024-02-13T20:41:07.521Z,98946.80
2024-02-13T20:43:36.299Z,98951.09
2024-02-13T20:46:04.200Z,98955.89
2024-02-13T20:48:32.000Z,98957.62
2024-02-13T20:50:59.937Z,98955.13
2024-02-13T20:53:28.198Z,98955.69
2024-02-13T20:55:55.920Z,98956.23
2024-02-13T20:58:23.728Z,98961.51
2024-02-13T21:00:52.144Z,98960.88
2024-02-13T21:03:20.033Z,98964.09
2024-02-13T21:05:48.214Z,98969.51
2024-02-13T21:08:15.916Z,98971.04
2024-02-13T21:10:43.589Z,98968.19
2024-02-13T21:13:11.240Z,98963.30
2024-02-13T21:15:38.975Z,98966.00
2024-02-13T21:18:06.930Z,98961.79
2024-02-13T21:20:34.735Z,98963.45
2024-02-13T21:23:03.037Z,98958.55
2024-02-13T21:25:31.631Z,98960.04
2024-02-13T21:27:59.276Z,98964.73
2024-02-13T21:30:28.015Z,98964.72
2024-02-13T21:32:57.089Z,98966.55
2024-02-13T21:35:25.138Z,98969.40
2024-02-13T21:37:53.026Z,98974.26
2024-02-13T21:40:20.762Z,98979.61
2024-02-13T21:42:48.991Z,98981.45
2024-02-13T21:45:16.673Z,98979.41
2024-02-13T21:47:44.389Z,98983.28
2024-02-13T21:50:12.466Z,98976.53
2024-02-13T21:52:40.254Z,98975.16
2024-02-13T21:55:08.282Z,98977.65
2024-02-13T21:57:36.273Z,98977.28
2024-02-13T22:00:04.862Z,98976.73
2024-02-13T22:02:32.812Z,98976.88
2024-02-13T22:05:01.008Z,98981.88
2024-02-13T22:07:28.688Z,98988.39
2024-02-13T22:09:57.089Z,98989.01
2024-02-13T22:12:25.106Z,98990.13
2024-02-13T22:14:52.941Z,98991.94
2024-02-13T22:17:20.647Z,98997.61
2024-02-13T22:19:48.356Z,98997.58
2024-02-13T22:22:16.035Z,98996.53
2024-02-13T22:24:43.814Z,99001.02
2024-02-13T22:27:11.456Z,99002.82
2024-02-13T22:29:39.184Z,99008.30
2024-02-13T22:32:07.104Z,99008.42
2024-02-13T22:34:35.014Z,99009.89
2024-02-13T22:37:02.720Z,99009.36
2024-02-13T22:39:30.386Z,99007.34
2024-02-13T22:42:00.819Z,99015.35
2024-02-13T22:44:28.605Z,99015.98
2024-02-13T22:46:56.311Z,99019.15
2024-02-13T22:49:24.046Z,99021.65
2024-02-13T22:51:52.099Z,99023.00
2024-02-13T22:54:20.401Z,99021.98
2024-02-13T22:56:48.839Z,99020.10
2024-02-13T22:59:16.691Z,99016.91
2024-02-13T23:01:44.377Z,99017.04
2024-02-13T23:04:12.168Z,99011.66
2024-02-13T23:06:40.137Z,99012.63
2024-02-13T23:09:08.232Z,99012.42
2024-02-13T23:11:35.983Z,99014.59
2024-02-13T23:14:03.872Z,99015.72
2024-02-13T23:16:31.771Z,99013.85
2024-02-13T23:18:59.552Z,99019.16
2024-02-13T23:21:27.361Z,99019.61
2024-02-13T23:23:55.445Z,99022.27
2024-02-13T23:26:23.182Z,99020.05
2024-02-13T23:28:56.579Z,99025.71
2024-02-13T23:31:25.630Z,99024.33
2024-02-13T23:33:53.843Z,99027.48
2024-02-13T23:36:21.797Z,99025.76
2024-02-13T23:38:49.556Z,99027.08
2024-02-13T23:41:17.248Z,99030.04
2024-02-13T23:43:45.088Z,99029.48
2024-02-13T23:46:12.727Z,99030.13
2024-02-13T23:48:40.662Z,99032.15
2024-02-13T23:51:08.606Z,99032.65
2024-02-13T23:53:36.480Z,99034.31
2024-02-13T23:56:05.521Z,99036.98
2024-02-13T23:58:33.214Z,99039.50
